IVAO ES Tour IFR-A 2013 Etapa 11

IVAO ES Tour IFR-A 2013 Etapa 11

La Coruña ( LECO ) – Murcia ( LELC )

Datos generales del vuelo
 Fecha 29-11-2013  Avión  B737-800 winglets
 Ruta FORNO UN733 ZMR UL155 NVS UM191 PDT UM871 NANDO UL150 ALT  Nivel de vuelo FL350
 Origen LECO  Destino LELC
 Velocidad M0.793  Distancia 582Nm
 Distancia real 478Nm ETE 01:20
 ETA 10:55Z  FOB 02:45
 Hora salida 09:25Z Hora llegada 11:05Z
 Pax 151 TOW 68674Kg
 MTOW  78471Kg Fuel 8481Kg
 Fuel utilizado 4756Kg ZFW 60192Kg
Peso carga 7635Kg Peso pasaje 11144Kg
V1 132Knots Vr 142Knots
 V2 151Knots  Vref 148Knots
 Velocidad vertical toma
277,69 ft/m  

 

Datos LECO

Metar: LECO 290830Z 19003KT 9999 1800E BCFG NSC 01/01 Q1032
Pista Activa: 03
Salida: FORNO1D

Datos LELC

Metar: LELC 291000Z 32008KT 9999 FEW030TCU 12/03 Q1027 NOSIG
Pista Activa: 05R
Llegada: PALOS1C
App:  ILS Z 05R transición SANSI

 

 

 

Deja una respuesta